Time;durP1;ratioP1;P1;durP2;ratioP2;P2;SDS_P1;SDS_P2;PMS_P1;PMS_P2;Temp;Humidity;BMP_temperature;BMP_pressure;BME280_temperature;BME280_humidity;BME280_pressure;Samples;Min_cycle;Max_cycle;Signal;HPM_P1;HPM_P2
2021/05/02 00:00:14;;;;;;;13.23;7.18;;;;;;;;;;5001542;28;20466;-69
2021/05/02 00:02:40;;;;;;;15.38;7.80;;;;;;;;;;4999770;28;20065;-69
2021/05/02 00:05:07;;;;;;;9.52;5.63;;;;;;;;;;5004678;28;20041;-69
2021/05/02 00:07:33;;;;;;;11.60;6.43;;;;;;;;;;5016000;28;20025;-69
2021/05/02 00:09:59;;;;;;;10.25;5.10;;;;;;;;;;5010040;28;20077;-69
2021/05/02 00:12:26;;;;;;;17.27;6.28;;;;;;;;;;5025819;28;20030;-69
2021/05/02 00:14:52;;;;;;;8.23;5.95;;;;;;;;;;5007696;28;20087;-69
2021/05/02 00:17:18;;;;;;;10.63;5.82;;;;;;;;;;5004909;28;20034;-69
2021/05/02 00:19:45;;;;;;;11.65;5.72;;;;;;;;;;5015083;28;20053;-69
2021/05/02 00:22:12;;;;;;;11.15;6.18;;;;;;;;;;5000111;28;20039;-69
2021/05/02 00:24:38;;;;;;;9.20;6.25;;;;;;;;;;4993551;28;20080;-72
2021/05/02 00:27:04;;;;;;;8.52;5.57;;;;;;;;;;4994419;28;20044;-69
2021/05/02 00:29:31;;;;;;;10.05;6.18;;;;;;;;;;4998598;28;20139;-69
2021/05/02 00:31:58;;;;;;;9.05;5.40;;;;;;;;;;4997405;28;20442;-69
2021/05/02 00:34:24;;;;;;;9.50;5.25;;;;;;;;;;5001948;28;20026;-69
2021/05/02 00:36:50;;;;;;;9.27;5.45;;;;;;;;;;4996296;28;20034;-69
2021/05/02 00:39:17;;;;;;;12.65;5.35;;;;;;;;;;5000679;28;20388;-69
2021/05/02 00:41:43;;;;;;;9.40;5.43;;;;;;;;;;4991332;28;20484;-69
2021/05/02 00:44:22;;;;;;;11.10;5.82;;;;;;;;;;4996564;28;20026;-69
2021/05/02 00:47:02;;;;;;;8.73;5.10;;;;;;;;;;5010754;28;20629;-69
2021/05/02 00:49:48;;;;;;;10.38;5.00;;;;;;;;;;5006013;28;20088;-69
2021/05/02 00:52:35;;;;;;;9.77;5.63;;;;;;;;;;5002505;28;20085;-68
2021/05/02 00:55:08;;;;;;;8.25;5.38;;;;;;;;;;5004599;28;20028;-69
2021/05/02 00:57:52;;;;;;;11.32;5.13;;;;;;;;;;4999560;28;20080;-69
2021/05/02 01:00:19;;;;;;;7.05;4.70;;;;;;;;;;5010031;28;21403;-69
2021/05/02 01:02:47;;;;;;;11.05;4.82;;;;;;;;;;5001754;28;20022;-69
2021/05/02 01:05:13;;;;;;;8.10;4.38;;;;;;;;;;5001313;28;20022;-69
2021/05/02 01:07:40;;;;;;;10.63;4.72;;;;;;;;;;5009822;28;20049;-69
2021/05/02 01:10:10;;;;;;;7.65;4.50;;;;;;;;;;5009897;28;20104;-69
2021/05/02 01:12:42;;;;;;;9.15;4.85;;;;;;;;;;5006152;28;20030;-69
2021/05/02 01:15:10;;;;;;;9.18;5.10;;;;;;;;;;5002106;28;20034;-69
2021/05/02 01:17:38;;;;;;;10.63;4.50;;;;;;;;;;5018839;28;20029;-69
2021/05/02 01:20:05;;;;;;;10.27;4.80;;;;;;;;;;5013680;28;20396;-69
2021/05/02 01:22:34;;;;;;;10.88;4.20;;;;;;;;;;5013009;28;20060;-69
2021/05/02 01:25:01;;;;;;;6.82;4.15;;;;;;;;;;5009874;28;20029;-69
2021/05/02 01:27:28;;;;;;;7.57;3.95;;;;;;;;;;5006069;28;20022;-69
2021/05/02 01:29:55;;;;;;;9.90;4.43;;;;;;;;;;5014694;28;20041;-69
2021/05/02 01:32:21;;;;;;;10.90;5.40;;;;;;;;;;5033088;28;20097;-69
2021/05/02 01:34:47;;;;;;;10.18;4.97;;;;;;;;;;5020968;28;20030;-69
2021/05/02 01:37:14;;;;;;;7.15;4.60;;;;;;;;;;5026800;28;20038;-69
2021/05/02 01:39:40;;;;;;;8.20;4.47;;;;;;;;;;5032578;28;20034;-69
2021/05/02 01:42:06;;;;;;;12.98;5.05;;;;;;;;;;5028651;28;20031;-69
2021/05/02 01:44:32;;;;;;;8.68;4.90;;;;;;;;;;5029705;28;20026;-69
2021/05/02 01:47:00;;;;;;;9.07;4.38;;;;;;;;;;5017860;28;20022;-68
2021/05/02 01:49:27;;;;;;;9.00;4.70;;;;;;;;;;5021092;28;20033;-68
2021/05/02 01:51:53;;;;;;;7.80;5.25;;;;;;;;;;5016862;28;20040;-68
2021/05/02 01:54:19;;;;;;;10.25;5.30;;;;;;;;;;5022402;28;20040;-69
2021/05/02 01:56:46;;;;;;;5.78;4.35;;;;;;;;;;5012281;28;20376;-69
2021/05/02 01:59:14;;;;;;;8.60;4.72;;;;;;;;;;5019494;28;20006;-68
2021/05/02 02:01:40;;;;;;;9.23;5.22;;;;;;;;;;5015114;28;20102;-68
2021/05/02 02:04:08;;;;;;;9.68;5.53;;;;;;;;;;5020477;28;20065;-69
2021/05/02 02:06:34;;;;;;;13.93;5.50;;;;;;;;;;5020372;28;20106;-69
2021/05/02 02:09:07;;;;;;;12.48;4.95;;;;;;;;;;5018922;28;20053;-69
2021/05/02 02:11:33;;;;;;;8.75;4.72;;;;;;;;;;5017728;28;20034;-68
2021/05/02 02:13:59;;;;;;;7.88;4.85;;;;;;;;;;5023297;28;20033;-68
2021/05/02 02:16:26;;;;;;;13.10;5.05;;;;;;;;;;5017652;28;20026;-68
2021/05/02 02:18:52;;;;;;;8.32;4.65;;;;;;;;;;5012207;28;20239;-69
2021/05/02 02:21:20;;;;;;;7.47;4.63;;;;;;;;;;4996560;28;20022;-69
2021/05/02 02:23:49;;;;;;;11.63;5.55;;;;;;;;;;5001450;28;20131;-69
2021/05/02 02:26:17;;;;;;;10.30;5.15;;;;;;;;;;5009209;28;20032;-69
2021/05/02 02:28:44;;;;;;;11.98;5.88;;;;;;;;;;5012634;28;20037;-69
2021/05/02 02:31:12;;;;;;;8.15;4.78;;;;;;;;;;5022235;28;20053;-69
2021/05/02 02:33:39;;;;;;;14.55;5.45;;;;;;;;;;5020894;28;20254;-69
2021/05/02 02:36:06;;;;;;;9.40;5.18;;;;;;;;;;5011154;28;20038;-69
2021/05/02 02:38:34;;;;;;;10.27;5.35;;;;;;;;;;5020336;28;20041;-68
2021/05/02 02:41:00;;;;;;;8.55;5.13;;;;;;;;;;5005924;28;20670;-69
2021/05/02 02:43:36;;;;;;;8.35;4.80;;;;;;;;;;5011121;28;20044;-69
2021/05/02 02:46:10;;;;;;;8.93;4.75;;;;;;;;;;5006775;28;20480;-68
2021/05/02 02:48:38;;;;;;;6.82;4.50;;;;;;;;;;5008945;28;20029;-68
2021/05/02 02:51:04;;;;;;;9.02;5.30;;;;;;;;;;5019325;28;20049;-69
2021/05/02 02:53:31;;;;;;;9.65;4.85;;;;;;;;;;5007725;28;20018;-68
2021/05/02 02:56:07;;;;;;;6.85;4.78;;;;;;;;;;5006237;28;20027;-69
2021/05/02 02:58:53;;;;;;;6.60;5.30;;;;;;;;;;5007138;28;20035;-68
2021/05/02 03:01:19;;;;;;;12.13;5.80;;;;;;;;;;5003586;28;20030;-69
2021/05/02 03:03:46;;;;;;;7.13;4.18;;;;;;;;;;5005648;28;20033;-69
2021/05/02 03:06:12;;;;;;;9.48;4.60;;;;;;;;;;5005614;28;20033;-69
2021/05/02 03:08:39;;;;;;;13.00;5.00;;;;;;;;;;5000194;28;20022;-69
2021/05/02 03:11:07;;;;;;;14.88;4.95;;;;;;;;;;5001882;28;20440;-69
2021/05/02 03:13:33;;;;;;;7.55;4.43;;;;;;;;;;5005619;28;20085;-69
2021/05/02 03:16:03;;;;;;;8.35;4.70;;;;;;;;;;5014296;28;20415;-69
2021/05/02 03:18:33;;;;;;;7.68;3.83;;;;;;;;;;5017762;28;20026;-68
2021/05/02 03:21:04;;;;;;;10.82;4.00;;;;;;;;;;5026541;28;20026;-68
2021/05/02 03:23:35;;;;;;;10.38;4.20;;;;;;;;;;5009412;28;20022;-69
2021/05/02 03:26:06;;;;;;;12.25;3.47;;;;;;;;;;5003933;28;20023;-69
2021/05/02 03:28:35;;;;;;;10.15;4.72;;;;;;;;;;5007206;28;20064;-69
2021/05/02 03:31:02;;;;;;;6.80;3.75;;;;;;;;;;5001773;28;20483;-69
2021/05/02 03:33:28;;;;;;;13.57;4.78;;;;;;;;;;5015097;28;20022;-69
2021/05/02 03:35:55;;;;;;;9.43;2.90;;;;;;;;;;5018445;28;20550;-68
2021/05/02 03:38:22;;;;;;;8.63;3.30;;;;;;;;;;5018228;28;20395;-69
2021/05/02 03:40:48;;;;;;;6.95;2.97;;;;;;;;;;5010319;28;20428;-69
2021/05/02 03:43:15;;;;;;;10.35;3.22;;;;;;;;;;5004449;28;20029;-69
2021/05/02 03:45:41;;;;;;;7.07;3.17;;;;;;;;;;5008495;28;20026;-69
2021/05/02 03:48:07;;;;;;;8.75;3.28;;;;;;;;;;5016832;28;20041;-69
2021/05/02 03:50:33;;;;;;;8.48;2.53;;;;;;;;;;5023267;28;20028;-68
2021/05/02 03:52:59;;;;;;;8.10;3.05;;;;;;;;;;5002896;28;20380;-69
2021/05/02 03:55:25;;;;;;;5.68;2.70;;;;;;;;;;5004828;28;20064;-69
2021/05/02 03:57:51;;;;;;;6.20;2.20;;;;;;;;;;5000092;28;20023;-69
2021/05/02 04:00:17;;;;;;;6.75;2.15;;;;;;;;;;5006828;28;20088;-69
2021/05/02 04:02:43;;;;;;;6.38;2.72;;;;;;;;;;5007465;28;20395;-68
2021/05/02 04:05:09;;;;;;;7.78;2.60;;;;;;;;;;5002774;28;20034;-69
2021/05/02 04:07:35;;;;;;;3.45;2.03;;;;;;;;;;5008489;28;20026;-69
2021/05/02 04:10:01;;;;;;;4.82;1.95;;;;;;;;;;5009936;28;20034;-69
2021/05/02 04:12:27;;;;;;;7.90;2.42;;;;;;;;;;5004243;28;20041;-69
2021/05/02 04:14:53;;;;;;;7.90;2.58;;;;;;;;;;5002517;28;20395;-69
2021/05/02 04:17:19;;;;;;;8.10;2.95;;;;;;;;;;5028235;28;20464;-69
2021/05/02 04:19:46;;;;;;;6.05;2.45;;;;;;;;;;5005719;28;20038;-68
2021/05/02 04:22:14;;;;;;;7.68;2.35;;;;;;;;;;5006071;28;20030;-69
2021/05/02 04:24:40;;;;;;;3.88;2.85;;;;;;;;;;5019863;28;20022;-69
2021/05/02 04:27:06;;;;;;;8.68;2.40;;;;;;;;;;5004472;28;20026;-69
2021/05/02 04:29:33;;;;;;;7.63;2.38;;;;;;;;;;5005287;28;20031;-69
2021/05/02 04:31:59;;;;;;;8.65;2.92;;;;;;;;;;5000267;28;20037;-69
2021/05/02 04:34:25;;;;;;;6.03;2.75;;;;;;;;;;5007403;28;20022;-69
2021/05/02 04:36:52;;;;;;;5.00;2.38;;;;;;;;;;5005447;28;20100;-69
2021/05/02 04:39:18;;;;;;;12.70;3.15;;;;;;;;;;5000678;28;20105;-69
2021/05/02 04:41:45;;;;;;;6.15;2.60;;;;;;;;;;5005898;28;20029;-69
2021/05/02 04:44:11;;;;;;;5.55;2.78;;;;;;;;;;5009119;28;20037;-69
2021/05/02 04:46:38;;;;;;;8.48;2.60;;;;;;;;;;5005283;28;20085;-69
2021/05/02 04:49:04;;;;;;;8.20;2.35;;;;;;;;;;5003299;28;20048;-69
2021/05/02 04:51:30;;;;;;;6.00;2.00;;;;;;;;;;4997952;28;20050;-69
2021/05/02 04:53:56;;;;;;;7.88;2.72;;;;;;;;;;5004623;28;20026;-68
2021/05/02 04:56:22;;;;;;;5.13;2.15;;;;;;;;;;5009375;28;20471;-69
2021/05/02 04:58:47;;;;;;;7.80;3.03;;;;;;;;;;5016206;28;20040;-69
2021/05/02 05:01:14;;;;;;;8.95;2.35;;;;;;;;;;5007837;28;20034;-69
2021/05/02 05:03:40;;;;;;;7.82;1.83;;;;;;;;;;5015909;28;20073;-69
2021/05/02 05:06:06;;;;;;;8.15;2.20;;;;;;;;;;5008522;28;20061;-69
2021/05/02 05:08:32;;;;;;;7.80;2.15;;;;;;;;;;5020528;28;20424;-69
2021/05/02 05:10:58;;;;;;;3.20;1.63;;;;;;;;;;5016407;28;20021;-69
2021/05/02 05:13:27;;;;;;;7.10;1.70;;;;;;;;;;5001541;28;20068;-69
2021/05/02 05:15:57;;;;;;;3.83;1.63;;;;;;;;;;5009753;28;20022;-69
2021/05/02 05:18:23;;;;;;;4.30;1.42;;;;;;;;;;5011610;28;20113;-69
2021/05/02 05:20:49;;;;;;;9.15;2.53;;;;;;;;;;5004657;28;20404;-69
2021/05/02 05:23:15;;;;;;;3.65;1.65;;;;;;;;;;4999623;28;20105;-69
2021/05/02 05:25:41;;;;;;;6.90;1.73;;;;;;;;;;5000443;28;20038;-69
2021/05/02 05:28:07;;;;;;;5.30;1.30;;;;;;;;;;5007071;28;20090;-69
2021/05/02 05:30:33;;;;;;;3.17;1.30;;;;;;;;;;5005265;28;20054;-69
2021/05/02 05:33:07;;;;;;;4.88;1.67;;;;;;;;;;5016585;28;20041;-69
2021/05/02 05:35:33;;;;;;;4.53;1.20;;;;;;;;;;5024861;28;20454;-69
2021/05/02 05:37:59;;;;;;;3.30;1.48;;;;;;;;;;5003213;28;20038;-69
2021/05/02 05:40:26;;;;;;;9.40;1.55;;;;;;;;;;5010966;28;20058;-69
2021/05/02 05:42:52;;;;;;;4.22;1.20;;;;;;;;;;5008215;28;20019;-69
2021/05/02 05:45:19;;;;;;;5.50;0.98;;;;;;;;;;5011878;28;20034;-69
2021/05/02 05:47:48;;;;;;;8.00;1.38;;;;;;;;;;5011756;28;20049;-69
2021/05/02 05:50:15;;;;;;;4.88;1.20;;;;;;;;;;5004277;28;20113;-69
2021/05/02 05:52:41;;;;;;;5.10;1.55;;;;;;;;;;5015661;28;20026;-69
2021/05/02 05:55:08;;;;;;;3.80;1.38;;;;;;;;;;5005832;28;20084;-69
2021/05/02 05:57:34;;;;;;;3.22;1.30;;;;;;;;;;5007893;28;20419;-69
2021/05/02 06:00:00;;;;;;;3.15;1.30;;;;;;;;;;5008832;28;20036;-69
2021/05/02 06:02:26;;;;;;;3.35;0.90;;;;;;;;;;5015636;28;20022;-69
2021/05/02 06:04:52;;;;;;;5.30;1.25;;;;;;;;;;5016592;28;20030;-69
2021/05/02 06:07:17;;;;;;;4.80;0.90;;;;;;;;;;5017962;28;20056;-69
2021/05/02 06:09:43;;;;;;;9.27;1.48;;;;;;;;;;5011452;28;20026;-69
2021/05/02 06:12:09;;;;;;;5.05;1.15;;;;;;;;;;5017720;28;20055;-69
2021/05/02 06:14:35;;;;;;;1.90;0.75;;;;;;;;;;5009122;28;20101;-69
2021/05/02 06:17:01;;;;;;;3.72;0.73;;;;;;;;;;5008428;28;20031;-69
2021/05/02 06:19:28;;;;;;;3.00;0.95;;;;;;;;;;5013540;28;20053;-69
2021/05/02 06:21:54;;;;;;;3.80;1.00;;;;;;;;;;5001011;28;20116;-69
2021/05/02 06:24:20;;;;;;;4.63;1.13;;;;;;;;;;5011480;28;20120;-69
2021/05/02 06:26:46;;;;;;;4.35;0.88;;;;;;;;;;4995904;28;20026;-69
2021/05/02 06:29:12;;;;;;;2.33;0.50;;;;;;;;;;5011172;28;20027;-69
2021/05/02 06:31:40;;;;;;;2.90;1.58;;;;;;;;;;5008741;28;20033;-69
2021/05/02 06:34:06;;;;;;;2.28;0.80;;;;;;;;;;5022261;28;20546;-69
2021/05/02 06:36:32;;;;;;;5.43;0.73;;;;;;;;;;5006454;28;20113;-69
2021/05/02 06:38:58;;;;;;;3.53;0.80;;;;;;;;;;4999367;28;20799;-69
2021/05/02 06:41:24;;;;;;;5.60;0.90;;;;;;;;;;5003305;28;20140;-69
2021/05/02 06:43:50;;;;;;;3.25;0.63;;;;;;;;;;5006402;28;20120;-69
2021/05/02 06:46:28;;;;;;;1.63;0.50;;;;;;;;;;5012015;28;20038;-70
2021/05/02 06:49:04;;;;;;;2.00;0.50;;;;;;;;;;5022619;28;20482;-69
2021/05/02 06:51:30;;;;;;;4.07;0.75;;;;;;;;;;5008873;28;20026;-69
2021/05/02 06:53:56;;;;;;;3.67;0.50;;;;;;;;;;5021864;28;20053;-70
2021/05/02 06:56:22;;;;;;;1.50;0.50;;;;;;;;;;5011210;28;20030;-70
2021/05/02 06:58:49;;;;;;;3.38;0.70;;;;;;;;;;5011018;28;20026;-69
2021/05/02 07:01:15;;;;;;;1.60;0.50;;;;;;;;;;5015117;28;20026;-70
2021/05/02 07:03:41;;;;;;;3.80;0.68;;;;;;;;;;5014477;28;20018;-69
2021/05/02 07:06:07;;;;;;;4.47;0.70;;;;;;;;;;5002838;28;20379;-69
2021/05/02 07:08:33;;;;;;;4.10;0.60;;;;;;;;;;5011283;28;20468;-69
2021/05/02 07:10:59;;;;;;;2.17;0.60;;;;;;;;;;5003890;28;20064;-69
2021/05/02 07:13:27;;;;;;;4.03;0.60;;;;;;;;;;5015773;28;20501;-70
2021/05/02 07:15:53;;;;;;;2.58;0.73;;;;;;;;;;5017738;28;20096;-69
2021/05/02 07:18:19;;;;;;;3.28;0.70;;;;;;;;;;5009710;28;20033;-69
2021/05/02 07:20:45;;;;;;;2.25;0.50;;;;;;;;;;5008352;28;20498;-69
2021/05/02 07:23:11;;;;;;;2.90;0.60;;;;;;;;;;5007574;28;20053;-69
2021/05/02 07:25:37;;;;;;;3.08;0.68;;;;;;;;;;5007163;28;20057;-70
2021/05/02 07:28:03;;;;;;;2.85;0.55;;;;;;;;;;5011545;28;20026;-70
2021/05/02 07:30:29;;;;;;;1.92;0.80;;;;;;;;;;5001783;28;20041;-70
2021/05/02 07:32:55;;;;;;;3.80;0.70;;;;;;;;;;4995546;28;20033;-70
2021/05/02 07:35:21;;;;;;;4.25;0.70;;;;;;;;;;5000479;28;20116;-70
2021/05/02 07:37:47;;;;;;;1.98;0.52;;;;;;;;;;4993893;28;20034;-70
2021/05/02 07:40:13;;;;;;;1.55;0.40;;;;;;;;;;5000772;28;20035;-70
2021/05/02 07:42:39;;;;;;;5.40;0.90;;;;;;;;;;4996398;28;20022;-70
2021/05/02 07:45:06;;;;;;;3.75;0.85;;;;;;;;;;4996193;28;20026;-70
2021/05/02 07:47:32;;;;;;;3.80;0.93;;;;;;;;;;5000644;28;20022;-71
2021/05/02 07:49:58;;;;;;;4.40;1.05;;;;;;;;;;4994464;28;20058;-71
2021/05/02 07:52:24;;;;;;;4.85;0.75;;;;;;;;;;4993032;28;20062;-72
2021/05/02 07:54:50;;;;;;;2.58;0.80;;;;;;;;;;4990216;28;20029;-71
2021/05/02 07:57:16;;;;;;;3.63;1.67;;;;;;;;;;5000315;28;20030;-71
2021/05/02 07:59:42;;;;;;;2.22;0.93;;;;;;;;;;4990538;28;20137;-71
2021/05/02 08:02:09;;;;;;;4.57;0.75;;;;;;;;;;4993054;28;20145;-71
2021/05/02 08:04:37;;;;;;;4.93;0.70;;;;;;;;;;4989609;28;20018;-71
2021/05/02 08:07:03;;;;;;;1.85;0.40;;;;;;;;;;4993754;28;20181;-71
2021/05/02 08:09:29;;;;;;;3.88;0.63;;;;;;;;;;4999815;28;20403;-69
2021/05/02 08:11:55;;;;;;;1.35;0.40;;;;;;;;;;4993143;28;20023;-69
2021/05/02 08:14:21;;;;;;;2.28;0.40;;;;;;;;;;4998978;28;20052;-69
2021/05/02 08:16:47;;;;;;;2.13;0.60;;;;;;;;;;5002806;28;20372;-69
2021/05/02 08:19:13;;;;;;;4.57;0.70;;;;;;;;;;5000355;28;20539;-70
2021/05/02 08:21:39;;;;;;;3.95;0.40;;;;;;;;;;5008696;28;20105;-70
2021/05/02 08:24:05;;;;;;;2.05;0.70;;;;;;;;;;4999096;28;20404;-71
2021/05/02 08:26:32;;;;;;;2.88;0.65;;;;;;;;;;5002248;28;20075;-72
2021/05/02 08:28:57;;;;;;;1.20;0.57;;;;;;;;;;5008602;28;20037;-71
2021/05/02 08:31:24;;;;;;;3.97;1.05;;;;;;;;;;4996634;28;20026;-71
2021/05/02 08:33:49;;;;;;;4.03;0.80;;;;;;;;;;5004795;28;20407;-71
2021/05/02 08:36:17;;;;;;;3.40;0.43;;;;;;;;;;5012335;28;20040;-70
2021/05/02 08:38:43;;;;;;;2.90;0.57;;;;;;;;;;5015662;28;20014;-70
2021/05/02 08:41:09;;;;;;;5.03;0.70;;;;;;;;;;5017705;28;20484;-70
2021/05/02 08:43:35;;;;;;;5.22;1.05;;;;;;;;;;5009858;28;20028;-71
2021/05/02 08:46:02;;;;;;;3.60;0.95;;;;;;;;;;5022533;28;20018;-71
2021/05/02 08:48:28;;;;;;;1.88;0.43;;;;;;;;;;5009745;28;20088;-71
2021/05/02 08:50:55;;;;;;;2.10;0.63;;;;;;;;;;4998388;28;20056;-71
2021/05/02 08:53:21;;;;;;;4.18;0.82;;;;;;;;;;5019233;28;20477;-71
2021/05/02 08:55:47;;;;;;;3.08;0.60;;;;;;;;;;5009444;28;20454;-72
2021/05/02 08:58:20;;;;;;;2.75;0.85;;;;;;;;;;5009767;28;20072;-71
2021/05/02 09:00:46;;;;;;;2.45;0.40;;;;;;;;;;4994302;28;20038;-71
2021/05/02 09:03:13;;;;;;;2.45;0.60;;;;;;;;;;4991890;28;20030;-71
2021/05/02 09:05:46;;;;;;;3.55;0.60;;;;;;;;;;5002802;28;20026;-72
2021/05/02 09:08:29;;;;;;;1.73;0.57;;;;;;;;;;5006742;28;20026;-72
2021/05/02 09:10:55;;;;;;;3.15;0.60;;;;;;;;;;5004677;28;20534;-72
2021/05/02 09:13:21;;;;;;;2.53;0.52;;;;;;;;;;5006609;28;20034;-70
2021/05/02 09:15:56;;;;;;;4.07;0.60;;;;;;;;;;5019745;28;20112;-70
2021/05/02 09:18:32;;;;;;;4.47;0.80;;;;;;;;;;5002658;28;20025;-70
2021/05/02 09:20:57;;;;;;;2.45;0.85;;;;;;;;;;5008263;28;20025;-71
2021/05/02 09:23:23;;;;;;;2.97;0.50;;;;;;;;;;5002619;28;20525;-71
2021/05/02 09:25:53;;;;;;;4.25;0.77;;;;;;;;;;5005020;28;20026;-70
2021/05/02 09:28:20;;;;;;;3.20;0.57;;;;;;;;;;5025200;28;20030;-71
2021/05/02 09:30:46;;;;;;;1.98;0.38;;;;;;;;;;5007740;28;20447;-69
2021/05/02 09:33:25;;;;;;;1.00;0.32;;;;;;;;;;5007407;28;20036;-69
2021/05/02 09:35:51;;;;;;;2.50;0.43;;;;;;;;;;5008599;28;20061;-69
2021/05/02 09:38:18;;;;;;;1.48;0.40;;;;;;;;;;5011659;28;20805;-69
2021/05/02 09:40:54;;;;;;;2.25;0.50;;;;;;;;;;5011913;28;20375;-68
2021/05/02 09:43:34;;;;;;;2.17;0.50;;;;;;;;;;5020746;28;20638;-69
2021/05/02 09:46:37;;;;;;;1.88;0.40;;;;;;;;;;5018271;28;20014;-69
2021/05/02 09:49:02;;;;;;;1.17;0.47;;;;;;;;;;5008372;28;20034;-68
2021/05/02 09:51:30;;;;;;;2.15;0.47;;;;;;;;;;5001306;28;20080;-69
2021/05/02 09:54:03;;;;;;;2.05;0.60;;;;;;;;;;5015989;28;20018;-68
2021/05/02 09:56:52;;;;;;;2.72;0.20;;;;;;;;;;5012641;28;20117;-69
2021/05/02 09:59:19;;;;;;;3.05;0.30;;;;;;;;;;5004806;28;20176;-69
2021/05/02 10:02:04;;;;;;;2.55;0.38;;;;;;;;;;5004564;28;20026;-69
2021/05/02 10:04:31;;;;;;;0.75;0.20;;;;;;;;;;5004306;28;20076;-69
2021/05/02 10:06:57;;;;;;;3.15;0.60;;;;;;;;;;5001763;28;20029;-69
2021/05/02 10:09:23;;;;;;;1.88;0.40;;;;;;;;;;5006287;28;20501;-69
2021/05/02 10:11:49;;;;;;;2.03;0.50;;;;;;;;;;5003621;28;20492;-69
2021/05/02 10:14:15;;;;;;;2.55;0.40;;;;;;;;;;5004740;28;20172;-69
2021/05/02 10:16:41;;;;;;;1.48;0.40;;;;;;;;;;5001583;28;20033;-69
2021/05/02 10:19:10;;;;;;;0.95;0.30;;;;;;;;;;5002188;28;20180;-69
2021/05/02 10:21:37;;;;;;;1.08;0.30;;;;;;;;;;5000268;28;20117;-69
2021/05/02 10:24:03;;;;;;;1.20;0.35;;;;;;;;;;5002678;28;20029;-70
2021/05/02 10:26:29;;;;;;;1.60;0.40;;;;;;;;;;5002166;28;20132;-69
2021/05/02 10:28:56;;;;;;;0.93;0.30;;;;;;;;;;4995641;28;20101;-69
2021/05/02 10:31:28;;;;;;;2.63;0.40;;;;;;;;;;5005773;28;20037;-69
2021/05/02 10:33:54;;;;;;;0.85;0.40;;;;;;;;;;4994104;28;20029;-69
2021/05/02 10:36:22;;;;;;;2.17;0.47;;;;;;;;;;4998602;28;20034;-69
2021/05/02 10:38:55;;;;;;;1.67;0.40;;;;;;;;;;4998346;28;20030;-69
2021/05/02 10:41:24;;;;;;;4.30;1.92;;;;;;;;;;4996621;28;20043;-69
2021/05/02 10:43:50;;;;;;;1.73;0.85;;;;;;;;;;4998690;28;20030;-70
2021/05/02 10:46:35;;;;;;;3.45;0.60;;;;;;;;;;4999462;28;20050;-70
2021/05/02 10:49:00;;;;;;;2.30;0.60;;;;;;;;;;4998930;28;20018;-70
2021/05/02 10:51:28;;;;;;;2.28;0.50;;;;;;;;;;4999211;28;20041;-70
2021/05/02 10:54:01;;;;;;;2.13;1.05;;;;;;;;;;4995908;28;20022;-70
2021/05/02 10:56:46;;;;;;;6.68;1.00;;;;;;;;;;4997962;28;20049;-70
2021/05/02 10:59:13;;;;;;;2.53;0.32;;;;;;;;;;4993946;28;20026;-70
2021/05/02 11:01:39;;;;;;;1.73;0.40;;;;;;;;;;4993790;28;20508;-70
2021/05/02 11:04:05;;;;;;;3.05;0.40;;;;;;;;;;4996910;28;20038;-70
2021/05/02 11:06:38;;;;;;;3.92;0.60;;;;;;;;;;4997042;28;20019;-70
2021/05/02 11:09:11;;;;;;;2.35;0.40;;;;;;;;;;4993400;28;20038;-70
2021/05/02 11:11:38;;;;;;;4.72;0.60;;;;;;;;;;4999480;28;20445;-70
2021/05/02 11:16:53;;;;;;;2.30;0.65;;;;;;;;;;5001427;28;20037;-70
2021/05/02 11:19:23;;;;;;;1.40;0.43;;;;;;;;;;4998736;28;20408;-70
2021/05/02 11:21:49;;;;;;;1.25;0.50;;;;;;;;;;4998766;28;20014;-70
2021/05/02 11:24:16;;;;;;;2.03;0.60;;;;;;;;;;4998438;28;20033;-69
2021/05/02 11:29:31;;;;;;;2.65;0.77;;;;;;;;;;4988800;28;20042;-71
2021/05/02 11:31:57;;;;;;;1.38;0.50;;;;;;;;;;4996438;28;20049;-71
2021/05/02 11:34:23;;;;;;;2.60;0.82;;;;;;;;;;5001958;28;20057;-71
2021/05/02 11:36:49;;;;;;;3.47;0.50;;;;;;;;;;5008321;28;20049;-71
2021/05/02 11:39:30;;;;;;;4.18;0.50;;;;;;;;;;4994755;28;20475;-71
2021/05/02 11:42:03;;;;;;;2.30;0.40;;;;;;;;;;5002327;28;20023;-72
2021/05/02 11:44:31;;;;;;;1.17;0.40;;;;;;;;;;4991298;28;20587;-71
2021/05/02 11:47:05;;;;;;;3.05;0.28;;;;;;;;;;4993941;28;20085;-70
2021/05/02 11:49:35;;;;;;;3.40;0.50;;;;;;;;;;5000094;28;20057;-67
2021/05/02 11:52:01;;;;;;;3.40;0.63;;;;;;;;;;5007764;28;20462;-69
2021/05/02 11:54:31;;;;;;;3.75;0.40;;;;;;;;;;5006662;28;20100;-70
2021/05/02 11:56:57;;;;;;;1.92;0.40;;;;;;;;;;5000849;28;20109;-70
2021/05/02 11:59:22;;;;;;;2.63;0.50;;;;;;;;;;5000607;28;20109;-70
2021/05/02 12:01:49;;;;;;;4.57;0.80;;;;;;;;;;4995019;28;20057;-70
2021/05/02 12:04:18;;;;;;;3.33;0.73;;;;;;;;;;5002772;28;20060;-70
2021/05/02 12:06:44;;;;;;;1.42;0.38;;;;;;;;;;4998551;28;20018;-70
2021/05/02 12:09:12;;;;;;;1.90;0.65;;;;;;;;;;5003582;28;20030;-69
2021/05/02 12:11:39;;;;;;;1.77;0.30;;;;;;;;;;4998709;28;20484;-71
2021/05/02 12:14:05;;;;;;;2.20;0.30;;;;;;;;;;5000170;28;20041;-69
2021/05/02 12:16:31;;;;;;;3.67;0.55;;;;;;;;;;5005609;28;20030;-70
2021/05/02 12:19:04;;;;;;;3.03;0.40;;;;;;;;;;4998523;28;20045;-70
2021/05/02 12:21:40;;;;;;;1.45;0.30;;;;;;;;;;4997609;28;20072;-70
2021/05/02 12:24:07;;;;;;;2.90;0.60;;;;;;;;;;4992505;28;20026;-70
2021/05/02 12:26:34;;;;;;;3.45;0.70;;;;;;;;;;4994024;28;20026;-70
2021/05/02 12:29:07;;;;;;;1.73;0.40;;;;;;;;;;4989949;28;20030;-70
2021/05/02 12:31:35;;;;;;;4.07;0.70;;;;;;;;;;4999816;28;20026;-70
2021/05/02 12:34:01;;;;;;;2.28;0.40;;;;;;;;;;5008034;28;20109;-68
2021/05/02 12:36:28;;;;;;;2.58;0.40;;;;;;;;;;5001444;28;20032;-69
2021/05/02 12:39:01;;;;;;;1.95;0.52;;;;;;;;;;4994960;28;20134;-69
2021/05/02 12:41:27;;;;;;;1.38;0.40;;;;;;;;;;5012712;28;20422;-69
2021/05/02 12:43:53;;;;;;;2.08;0.45;;;;;;;;;;5002158;28;20528;-69
2021/05/02 12:46:36;;;;;;;1.17;0.30;;;;;;;;;;5012450;28;20025;-69
2021/05/02 12:49:34;;;;;;;2.50;0.60;;;;;;;;;;5012065;28;20030;-71
2021/05/02 12:52:13;;;;;;;2.30;0.70;;;;;;;;;;5009978;28;20038;-70
2021/05/02 12:54:40;;;;;;;2.20;0.70;;;;;;;;;;4991903;28;20018;-70
2021/05/02 12:57:07;;;;;;;0.98;0.30;;;;;;;;;;4991880;28;20261;-71
2021/05/02 12:59:42;;;;;;;1.10;0.65;;;;;;;;;;4997093;28;20069;-69
2021/05/02 13:02:16;;;;;;;1.58;0.50;;;;;;;;;;5011821;28;20022;-70
2021/05/02 13:04:42;;;;;;;2.75;0.60;;;;;;;;;;5004901;28;20427;-70
2021/05/02 13:07:09;;;;;;;2.90;0.50;;;;;;;;;;5004365;28;20056;-71
2021/05/02 13:09:43;;;;;;;1.77;0.35;;;;;;;;;;5001589;28;20080;-69
2021/05/02 13:12:09;;;;;;;1.60;0.40;;;;;;;;;;4996497;28;20038;-70
2021/05/02 13:14:36;;;;;;;1.85;0.50;;;;;;;;;;5001276;28;20018;-70
2021/05/02 13:17:08;;;;;;;2.03;0.30;;;;;;;;;;4993774;28;20125;-69
2021/05/02 13:19:37;;;;;;;2.63;0.30;;;;;;;;;;5003143;28;20045;-68
2021/05/02 13:22:19;;;;;;;4.47;0.50;;;;;;;;;;4995615;28;20073;-70
2021/05/02 13:25:05;;;;;;;0.65;0.40;;;;;;;;;;5002619;28;20034;-70
2021/05/02 13:27:43;;;;;;;2.92;0.57;;;;;;;;;;4994961;28;20027;-68
2021/05/02 13:30:09;;;;;;;1.40;0.40;;;;;;;;;;5001640;28;20030;-69
2021/05/02 13:32:54;;;;;;;1.52;0.30;;;;;;;;;;5003985;28;20067;-69
2021/05/02 13:35:20;;;;;;;0.75;0.30;;;;;;;;;;5001718;28;20030;-69
2021/05/02 13:37:46;;;;;;;1.08;0.10;;;;;;;;;;4999930;28;20027;-69
2021/05/02 13:40:12;;;;;;;0.55;0.25;;;;;;;;;;4996513;28;20161;-69
2021/05/02 13:42:40;;;;;;;1.55;0.38;;;;;;;;;;4996375;28;20141;-67
2021/05/02 13:45:06;;;;;;;3.03;0.35;;;;;;;;;;5001545;28;20062;-69
2021/05/02 13:47:32;;;;;;;2.30;0.30;;;;;;;;;;4992163;28;20030;-69
2021/05/02 13:49:58;;;;;;;2.28;0.40;;;;;;;;;;4993868;28;20105;-70
2021/05/02 13:52:24;;;;;;;1.38;0.45;;;;;;;;;;5003389;28;20129;-71
2021/05/02 13:54:53;;;;;;;1.77;0.50;;;;;;;;;;5011520;28;20033;-69
2021/05/02 13:57:19;;;;;;;1.60;0.77;;;;;;;;;;4993969;28;20034;-70
2021/05/02 13:59:46;;;;;;;1.75;0.30;;;;;;;;;;4996379;28;20563;-69
2021/05/02 14:02:12;;;;;;;2.60;0.68;;;;;;;;;;4992804;28;20022;-69
2021/05/02 14:04:38;;;;;;;2.72;0.50;;;;;;;;;;4998855;28;20443;-70
2021/05/02 14:07:04;;;;;;;0.90;0.40;;;;;;;;;;4993034;28;20026;-70
2021/05/02 14:09:29;;;;;;;1.65;1.15;;;;;;;;;;4994864;28;20033;-70
2021/05/02 14:11:56;;;;;;;2.88;0.60;;;;;;;;;;5007904;28;20157;-70
2021/05/02 14:14:22;;;;;;;1.52;0.40;;;;;;;;;;4994133;28;20062;-70
2021/05/02 14:16:47;;;;;;;1.40;0.25;;;;;;;;;;4999851;28;20127;-70
2021/05/02 14:19:13;;;;;;;2.63;0.70;;;;;;;;;;5011577;28;20033;-70
2021/05/02 14:21:39;;;;;;;2.63;0.40;;;;;;;;;;4999189;28;20033;-70
2021/05/02 14:24:06;;;;;;;4.68;0.40;;;;;;;;;;4992439;28;20031;-69
2021/05/02 14:26:32;;;;;;;2.72;0.40;;;;;;;;;;5002203;28;20054;-70
2021/05/02 14:28:58;;;;;;;1.27;0.32;;;;;;;;;;4993984;28;20050;-70
2021/05/02 14:31:23;;;;;;;3.70;0.50;;;;;;;;;;4994092;28;20022;-70
2021/05/02 14:33:49;;;;;;;2.85;0.55;;;;;;;;;;4995600;28;20022;-71
2021/05/02 14:36:15;;;;;;;2.05;0.40;;;;;;;;;;4992519;28;20073;-70
2021/05/02 14:38:42;;;;;;;1.98;0.50;;;;;;;;;;4994375;28;20092;-70
2021/05/02 14:41:08;;;;;;;3.33;0.35;;;;;;;;;;4993483;28;20054;-70
2021/05/02 14:43:34;;;;;;;3.20;0.35;;;;;;;;;;4994334;28;20113;-70
2021/05/02 14:46:01;;;;;;;6.70;0.85;;;;;;;;;;4993995;28;20105;-70
2021/05/02 14:48:27;;;;;;;4.22;0.70;;;;;;;;;;4994144;28;20037;-70
2021/05/02 14:50:53;;;;;;;1.77;0.30;;;;;;;;;;4993087;28;20040;-70